NWS Home NWS Lubbock West Texas Mesonet Day over Day changes as of 0805 PM, Tue Jan 15, 2019

Latest   N   C   S   Daily Sum   3hrΔ   24hrΔ   Soil Data 
Site Map   24hr Precip   72hr Precip   Google Plot


Station Time of Last Temp Today Temp Yesterday Delta-T Dewpoint Today Dewpoint Yesterday Delta-Td Delta-Pressure (mB)
Reese Center  08:00 PM 44.7 36.6 8.1 35.1 32 3.2 -4.7
Abernathy  08:00 PM 42.6 37.6 5 34.6 32.6 2 -4.7
Plainview  08:00 PM 44.3 39.7 4.6 35.7 34.2 1.5 -4.5
Tahoka  08:00 PM 43.3 43.3 0.1 36.9 35.9 0.9 -4.5
Slaton  08:00 PM 46.1 38.6 7.5 37.7 34.1 3.6 -4.8
Levelland  08:00 PM 45.2 37.9 7.3 35.5 33.1 2.4 -4.5
Roaring Springs  08:00 PM 44.9 39.4 5.5 39.9 35.4 4.6 -5.3
Floydada  08:00 PM 45.9 38.5 7.4 35.8 32.1 3.7 -4.8
Ralls  08:00 PM 43.7 34.7 9 35.2 29.7 5.5 -4.8
Brownfield  08:00 PM 44 41.9 2.1 36 35.7 0.2 -4.7
Muleshoe  08:00 PM 45.9 38.8 7 28.8 32.9 -4.1 -4.1
Morton  08:00 PM 46.1 37 9.1 33.1 32.5 0.6 -4.1
O'Donnell  08:00 PM 45.9 42.8 3.2 37.3 35.3 2 -4.8
Seagraves  08:00 PM 43.9 41.5 2.4 36.8 36.1 0.7 -4.4
Amherst  08:00 PM 48.6 38.2 10.4 28.7 32.9 -4.2 -4.3
Plains  08:00 PM 44.1 40.4 3.7 35.3 34.7 0.5 -4.4
Lamesa  08:00 PM 41.4 42.9 -1.5 36.9 37.6 -0.7 -4.7
Hart  08:00 PM 43.5 39.9 3.5 28.2 33.4 -5.2 -4.4
Friona  08:00 PM 41.1 40.3 0.8 29.4 32.4 -3.1 -3.7
Dimmitt  08:00 PM 46.3 40.2 6.2 30.2 32.6 -2.4 -3.8
Tulia  08:00 PM 44.1 38.3 5.8 33.3 30.7 2.6 -4.6
Silverton  08:00 PM 42.8 35 7.8 33 29.2 3.8 -4.9
Post  08:00 PM 46.2 45.2 1 39.9 37 2.9 -5.1
Seminole  08:00 PM 46.7 41.4 5.3 36.9 35.5 1.5 -4.4
Gail  08:00 PM 44.6 44.3 0.3 39.3 37.3 2 -5
White River Lake  08:00 PM 45.1 37.6 7.5 38.1 33.1 5 -5
Graham  08:00 PM 48.7 43.9 4.8 39.5 36.6 2.9 -4.7
Sundown  08:00 PM 41.7 39.1 2.5 34.4 34.5 -0 -4.4
Anton  08:00 PM 42.4 35.4 6.9 33.7 31.1 2.7 -4.7
Fluvanna  08:00 PM 43.9 41.8 2 38.9 36 2.9 -4.9
Spur  08:00 PM 43.7 37.2 6.5 38 33.1 4.9 -5.2
Northwest Lubbock  08:00 PM 50.4 40.3 10 37.2 35.3 1.9 -4.7
Guthrie  08:00 PM 46.3 39 7.3 39.6 33.3 6.3 -5.3
Clarendon  08:00 PM 46.9 42.5 4.3 37.8 33.2 4.5 -5.2
Paducah  08:00 PM 42.8 39.8 3 39 35.1 3.9 -5.3
Snyder  08:00 PM 45.1 41.2 3.8 41.8 36.6 5.1 -5.1
Memphis  08:00 PM 46.1 41.8 4.3 39.4 33.9 5.4 -5.5
Jayton  08:00 PM 43.9 42 2 39.2 35.8 3.4 -5.2
Pampa  08:00 PM 40.7 39.2 1.5 36.2 33.1 3.1 -4.5
Aspermont  08:00 PM 44.7 44 0.7 41 38.5 2.5 -5.2
Hereford  08:00 PM 44 37.8 6.1 28.1 29.3 -1.2 -4
Goodlett  08:00 PM 42.4 39.8 2.5 39 34.7 4.3 -5.3
McLean  08:00 PM 43.4 41.1 2.3 37.3 32 5.3 -5
Denver City  08:00 PM 39.7 39.8 -0.1 32.4 34.1 -1.7 -4.1
Lake Alan Henry  08:00 PM 45.8 44.6 1.2 40.3 37.5 2.8 -5.1
Wolfforth  08:00 PM 44.9 36.9 8 36.1 33.4 2.7 -4.7
Andrews  08:00 PM 48 41.3 6.7 38.4 35 3.4 -4.5
Turkey  08:00 PM 46.5 42 4.4 37.5 33.5 4 -5.4
Childress  08:00 PM 43.7 38.8 4.9 39.3 33.7 5.5 -5.4
Tatum  08:00 PM 39.4 39.1 0.3 32.9 34.1 -1.1 -3.9
Northfield  08:00 PM 49.1 44.3 4.9 39.2 33.9 5.3 -5.5
Dora  08:00 PM 45.1 36 9 28.8 30.9 -2.1 -3.7
Northwest San Angelo  08:00 PM 43.3 43.3 0.1 39.5 35.1 4.3 -4.7
Saint Lawrence  08:00 PM 43.6 43.5 0 40.6 37.3 3.3 -4.5
Haskell  08:00 PM 45 41 4.1 41.3 37 4.3 -4.9
Wall  08:00 PM 42.5 43.8 -1.3 40.7 37.7 2.9 -4.5
Seymour  08:00 PM 45.1 39.9 5.2 41.2 35.8 5.3 -5
Knox City  08:00 PM 46 40.3 5.7 42.4 37.2 5.2 -5.2
Guadalupe Mtns Park  08:00 PM 48.5 33.9 14.6 31.5 30.8 0.7 -1.3
Caprock Canyons   08:00 PM 49.4 42.9 6.5 37.1 33.8 3.3 -5.5
Odell  08:00 PM 45.1 38.8 6.3 41.7 34.7 7 -5.3
Coyanosa  08:00 PM 47.4 42.1 5.3 42.1 36.9 5.2 -5.2
Big Lake  08:00 PM 44.3 44 0.3 43.3 38 5.3 -4.3
Junction  08:00 PM 48.9 44.5 4.3 45.4 37.5 7.9 -3.9
Hobbs  08:00 PM 43.7 38.9 4.8 36 34.3 1.8 -3.8
Canadian  08:00 PM 43.8 41.7 2 38.2 32.6 5.6 -4.2
Palo Duro Canyon State Park Rim  08:00 PM 48.3 46.3 2 29.6 33.1 -3.4 -4.4
Bootleg  08:00 PM 44.4 37.5 6.9 31.2 30.8 0.4 -3.6
Sterling City  08:00 PM 41.8 43.4 -1.6 40.8 37.6 3.3 -4.4
Mertzon  08:00 PM 42.8 43 -0.2 41.9 37.5 4.5 -4.6
Persimmon Gap  08:00 PM 48.2 42.1 6.1 45.4 37.3 8.1 -2.3
Weinert  08:00 PM 46 41.9 4.1 41.8 37.8 4 -5.1
Claude 12 Southwest  08:00 PM 50.6 44 6.6 33.8 33.2 0.6 -4.6
Amarillo 7 South Southeast  08:00 PM 38.6 42.1 -3.5 26.9 32.5 -5.5 -4.3
Umbarger  08:00 PM 43.6 40.2 3.4 29.8 32.1 -2.3 -4.1
Lomax  08:00 PM 43.8 44.8 -1 40 37.6 2.4 -4.9
Amarillo 9 North Northeast  08:00 PM 43.8 41.4 2.4 31.2 33.1 -1.9 -4.5
Aiken  08:00 PM 40.5 38.8 1.8 33.3 33 0.3 -4.6
Sweetwater  08:00 PM 43 41.7 1.3 40.4 36.7 3.6 -4.8
Dozier  08:00 PM 44 41.1 2.9 39.4 34.7 4.8 -5.1
Amarillo 15 North Northwest  08:00 PM 46.1 44.8 1.3 28.8 33.8 -5 -4.5
Menard  08:00 PM 48.3 43.3 5 44.5 37.2 7.3 -4.2
Tarzan  08:00 PM 45 43.6 1.3 39.7 37.7 2 -4.8
Goodnight  08:00 PM 41.9 40.5 1.4 36.1 32.5 3.7 -4.9
Boys Ranch   08:00 PM 39.3 41 -1.6 28.2 31.6 -3.5 -4.4
Fort McKavett  08:00 PM 46.7 44.4 2.3 44.4 38.9 5.6 -4.2
Fort Chadbourne  08:00 PM 44.1 42.1 2 42.5 37.5 5 -4.9
Palo Duro Canyon State Park Floor  08:00 PM 50.7 48 2.7 32.5 34.4 -1.9 -4.7
Fort Lancaster  08:00 PM 46 46.3 -0.4 46 40.4 5.6 -3.4
Dell City 1N  08:00 PM 46 43.2 2.8 36 35.2 0.9 -2.1
Clyde  08:00 PM 43.3 42 1.2 41.5 36.6 4.9 -4.7
Snyder SSW  08:00 PM 44.2 41.8 2.4 40.9 36.2 4.8 -5.1
Panhandle  08:00 PM 43 38.1 4.9 36 31.7 4.3 -4.8
Vigo Park  08:00 PM 41.7 38.4 3.3 33.1 31.3 1.8 -4.5
Welch  08:00 PM 43.4 42.8 0.7 37.1 37 0.2 -4.7
Throckmorton  08:00 PM 46.8 38 8.8 42.5 35.3 7.2 -5
Sierra Blanca  08:00 PM 53.9 46.1 7.8 42.9 35.6 7.3 -1.3
Fort Lewis CO  08:00 PM 32.5 23.5 9 30.6 19.9 10.7 -2.4
New Home  08:00 PM 44.2 42 2.2 36.7 35.9 0.8 -4.7
McCamey  08:00 PM 47.4 44.7 2.7 44.2 37.9 6.3 -4.8
Stamford  08:00 PM 44.5 42.8 1.7 42.3 38.7 3.6 -4.9
Crowell  08:00 PM 42.2 40.2 1.9 40.2 36.5 3.7 -5.1
Stinnett  08:00 PM 45.2 47.6 -2.4 33.1 31.4 1.7 -4.2
Colorado City  08:00 PM 46.9 42.6 4.3 42.2 36.9 5.3 -5.1
Happy  08:00 PM 38.9 36 2.9 27.2 30.7 -3.5 -4.4
Endee  08:00 PM 46.7 38.5 8.2 33.3 32.8 0.5 -4
JA Ranch  08:00 PM 39.9 35.8 4.1 35 29.4 5.6 -5.1
Adrian  08:00 PM 42.8 38.8 4 31.5 32.3 -0.8 -4
Lesley  08:00 PM 45.7 42.3 3.4 38.6 34.1 4.4 -5.5
Earth  08:00 PM 56.1 39.2 16.9 32.9 33.1 -0.2 -4.2
Van Horn  08:00 PM 53.6 39.4 14.2 44.3 33.5 10.8 -1.9
Rotan  08:00 PM 43.8 43.4 0.4 40.3 38 2.3 -5.4
Fritch  08:00 PM 48.7 49.2 -0.5 37.3 33.8 3.5 -4.7
Estelline  08:00 PM 46.8 43.5 3.4 40.2 35.1 5.1 -5.7
Crane  08:00 PM 45 44.3 0.7 41.6 37.6 4 -5.2
Hackberry  08:00 PM 45.6 42.6 3 41.5 36.1 5.3 -5.3
Romero 11 SSW  08:00 PM 48.6 42.5 6.1 29.8 34.3 -4.5 -4.1
Palo Duro Reservoir 1NW  08:00 PM 40.2 34.7 5.4 35 30.3 4.7 -4.1
South Plains 3ENE  08:00 PM 40.8 36.8 4 34.5 31.2 3.3 -4.9
Olton  08:00 PM 42.5 37.9 4.6 33.9 32.8 1.1 -4.3

West Texas Mesonet Home   Site Map/Menu  NWS Lubbock Soil Data  Daily Summary Page  24hr Precip  72hr Precip  Google Plot